createdAt,value
2019-06-01T00:03:07.179Z,33.80
2019-06-01T00:08:11.750Z,33.80
2019-06-01T00:13:16.239Z,33.60
2019-06-01T00:18:20.690Z,33.80
2019-06-01T00:23:25.098Z,33.70
2019-06-01T00:28:29.540Z,33.90
2019-06-01T00:33:34.221Z,34.10
2019-06-01T00:38:38.707Z,34.00
2019-06-01T00:43:44.207Z,34.00
2019-06-01T00:48:49.962Z,34.30
2019-06-01T00:53:54.562Z,34.40
2019-06-01T00:58:59.254Z,34.30
2019-06-01T01:04:03.831Z,34.40
2019-06-01T01:09:09.397Z,34.20
2019-06-01T01:14:13.845Z,34.30
2019-06-01T01:19:18.324Z,34.50
2019-06-01T01:24:22.786Z,34.50
2019-06-01T01:29:27.191Z,34.60
2019-06-01T01:34:32.122Z,34.80
2019-06-01T01:39:36.581Z,34.50
2019-06-01T01:44:41.013Z,35.40
2019-06-01T01:49:45.471Z,34.60
2019-06-01T01:54:50.616Z,34.60
2019-06-01T01:59:55.392Z,34.50
2019-06-01T02:05:00.099Z,34.50
2019-06-01T02:10:05.835Z,34.50
2019-06-01T02:15:11.119Z,34.80
2019-06-01T02:20:16.054Z,34.80
2019-06-01T02:25:20.611Z,34.90
2019-06-01T02:30:25.052Z,35.00
2019-06-01T02:35:29.534Z,35.30
2019-06-01T02:40:34.218Z,35.30
2019-06-01T02:45:40.223Z,35.50
2019-06-01T02:50:44.991Z,35.20
2019-06-01T02:55:49.430Z,35.20
2019-06-01T03:01:15.463Z,35.40
2019-06-01T03:06:20.906Z,35.60
2019-06-01T03:11:26.966Z,35.50
2019-06-01T03:16:33.253Z,35.50
2019-06-01T03:21:38.058Z,36.10
2019-06-01T03:26:47.172Z,35.60
2019-06-01T03:31:51.757Z,35.50
2019-06-01T03:36:56.394Z,35.60
2019-06-01T03:42:01.129Z,35.70
2019-06-01T03:47:05.773Z,35.60
2019-06-01T03:52:10.155Z,35.80
2019-06-01T03:57:14.748Z,36.00
2019-06-01T04:02:32.421Z,36.20
2019-06-01T04:07:25.642Z,36.20
2019-06-01T04:12:30.121Z,37.00
2019-06-01T04:17:34.749Z,36.40
2019-06-01T04:22:39.188Z,36.70
2019-06-01T04:27:44.042Z,36.80
2019-06-01T04:32:50.325Z,36.90
2019-06-01T04:37:54.762Z,37.00
2019-06-01T04:42:59.546Z,37.40
2019-06-01T04:48:06.286Z,37.40
2019-06-01T04:53:11.901Z,38.00
2019-06-01T04:58:16.923Z,38.10
2019-06-01T05:03:21.361Z,39.10
2019-06-01T05:08:25.860Z,38.40
2019-06-01T05:13:30.331Z,38.60
2019-06-01T05:18:34.929Z,38.70
2019-06-01T05:23:39.377Z,38.90
2019-06-01T05:28:44.034Z,39.00
2019-06-01T05:33:48.545Z,39.40
2019-06-01T05:38:53.005Z,39.30
2019-06-01T05:43:57.662Z,39.40
2019-06-01T05:49:02.641Z,39.50
2019-06-01T05:54:07.188Z,39.70
2019-06-01T05:59:11.863Z,39.70
2019-06-01T06:04:17.475Z,40.10
2019-06-01T06:09:23.105Z,40.10
2019-06-01T06:14:28.761Z,40.10
2019-06-01T06:19:33.262Z,40.20
2019-06-01T06:24:38.132Z,40.00
2019-06-01T06:29:42.844Z,39.90
2019-06-01T06:34:47.757Z,39.80
2019-06-01T06:39:52.838Z,39.70
2019-06-01T06:44:57.635Z,39.30
2019-06-01T06:50:02.166Z,39.00
2019-06-01T06:55:08.003Z,39.00
2019-06-01T07:00:13.481Z,38.80
2019-06-01T07:05:19.332Z,39.00
2019-06-01T07:10:24.247Z,38.70
2019-06-01T07:15:28.788Z,38.10
2019-06-01T07:20:33.847Z,38.20
2019-06-01T07:25:38.286Z,37.90
2019-06-01T07:30:50.398Z,38.00
2019-06-01T07:35:48.927Z,37.80
2019-06-01T07:40:53.874Z,37.60
2019-06-01T07:45:58.959Z,37.10
2019-06-01T07:51:03.864Z,36.20
2019-06-01T07:56:08.387Z,36.20
2019-06-01T08:01:13.088Z,36.20
2019-06-01T08:06:17.538Z,36.00
2019-06-01T08:11:24.308Z,35.80
2019-06-01T08:16:28.147Z,35.40
2019-06-01T08:21:32.583Z,35.30
2019-06-01T08:26:37.182Z,35.30
2019-06-01T08:31:41.998Z,35.30
2019-06-01T08:36:46.512Z,34.90
2019-06-01T08:41:51.002Z,34.70
2019-06-01T08:46:55.499Z,34.40
2019-06-01T08:51:59.998Z,34.60
2019-06-01T08:57:05.257Z,34.20
2019-06-01T09:02:11.239Z,33.60
2019-06-01T09:07:16.047Z,33.70
2019-06-01T09:12:20.969Z,33.20
2019-06-01T09:17:25.533Z,32.80
2019-06-01T09:22:29.991Z,32.40
2019-06-01T09:27:34.578Z,32.10
2019-06-01T09:32:39.063Z,31.30
2019-06-01T09:37:45.815Z,31.40
2019-06-01T09:42:51.338Z,31.10
2019-06-01T09:47:57.646Z,30.60
2019-06-01T09:53:02.100Z,29.90
2019-06-01T09:58:06.554Z,30.00
2019-06-01T10:03:11.123Z,30.00
2019-06-01T10:08:15.698Z,29.80
2019-06-01T10:13:20.579Z,29.40
2019-06-01T10:18:27.048Z,29.80
2019-06-01T10:23:32.390Z,29.60
2019-06-01T10:28:37.803Z,29.50
2019-06-01T10:33:43.310Z,29.40
2019-06-01T10:38:47.809Z,29.20
2019-06-01T10:43:52.313Z,28.80
2019-06-01T10:48:56.790Z,28.60
2019-06-01T10:54:01.306Z,28.50
2019-06-01T10:59:06.219Z,28.40
2019-06-01T11:04:11.002Z,28.30
2019-06-01T11:09:15.456Z,28.20
2019-06-01T11:14:19.954Z,27.80
2019-06-01T11:19:24.425Z,27.80
2019-06-01T11:24:28.909Z,27.70
2019-06-01T11:29:38.440Z,27.30
2019-06-01T11:34:40.293Z,27.10
2019-06-01T11:39:44.902Z,26.70
2019-06-01T11:44:49.326Z,26.20
2019-06-01T11:49:53.813Z,26.50
2019-06-01T11:54:58.670Z,25.50
2019-06-01T12:00:05.274Z,25.60
2019-06-01T12:05:11.081Z,25.10
2019-06-01T12:10:15.579Z,25.00
2019-06-01T12:15:20.172Z,24.60
2019-06-01T12:20:24.678Z,24.70
2019-06-01T12:25:29.173Z,25.20
2019-06-01T12:30:33.902Z,24.90
2019-06-01T12:35:39.821Z,25.00
2019-06-01T12:40:45.329Z,24.80
2019-06-01T12:46:05.542Z,24.80
2019-06-01T12:50:56.314Z,24.60
2019-06-01T12:56:01.143Z,24.40
2019-06-01T13:01:06.402Z,24.30
2019-06-01T13:06:11.283Z,24.30
2019-06-01T13:11:15.763Z,23.90
2019-06-01T13:16:20.282Z,23.90
2019-06-01T13:21:27.622Z,23.90
2019-06-01T13:26:31.378Z,23.40
2019-06-01T13:31:35.886Z,23.30
2019-06-01T13:36:40.634Z,23.80
2019-06-01T13:41:47.057Z,23.30
2019-06-01T13:46:51.594Z,23.50
2019-06-01T13:51:56.062Z,23.50
2019-06-01T13:57:00.657Z,23.10
2019-06-01T14:02:05.493Z,22.90
2019-06-01T14:07:10.024Z,23.30
2019-06-01T14:12:14.532Z,23.00
2019-06-01T14:17:19.310Z,22.60
2019-06-01T14:22:23.773Z,22.70
2019-06-01T14:27:29.434Z,22.80
2019-06-01T14:32:33.878Z,22.70
2019-06-01T14:37:38.624Z,22.60
2019-06-01T14:42:43.061Z,22.70
2019-06-01T14:47:47.930Z,21.80
2019-06-01T14:52:53.685Z,21.40
2019-06-01T14:57:58.729Z,21.20
2019-06-01T15:03:03.407Z,21.50
2019-06-01T15:08:08.204Z,21.30
2019-06-01T15:13:12.714Z,21.30
2019-06-01T15:18:17.218Z,21.30
2019-06-01T15:23:21.868Z,21.30
2019-06-01T15:28:26.403Z,21.30
2019-06-01T15:33:31.482Z,21.30
2019-06-01T15:38:35.936Z,21.30
2019-06-01T15:43:40.502Z,21.30
2019-06-01T15:48:44.918Z,21.40
2019-06-01T15:53:49.438Z,21.00
2019-06-01T15:58:56.676Z,20.80
2019-06-01T16:04:01.345Z,20.50
2019-06-01T16:09:07.532Z,20.60
2019-06-01T16:14:11.974Z,20.80
2019-06-01T16:19:16.431Z,21.00
2019-06-01T16:24:21.002Z,20.80
2019-06-01T16:29:29.379Z,20.90
2019-06-01T16:34:33.951Z,21.40
2019-06-01T16:39:38.435Z,20.90
2019-06-01T16:44:43.013Z,20.80
2019-06-01T16:49:47.630Z,20.90
2019-06-01T16:54:52.728Z,20.70
2019-06-01T16:59:58.432Z,20.60
2019-06-01T17:05:04.718Z,20.70
2019-06-01T17:10:24.512Z,20.60
2019-06-01T17:15:17.026Z,20.10
2019-06-01T17:20:59.262Z,20.40
2019-06-01T17:26:04.155Z,20.40
2019-06-01T17:31:08.960Z,20.50
2019-06-01T17:36:13.746Z,20.50
2019-06-01T17:41:18.619Z,20.50
2019-06-01T17:46:23.618Z,21.90
2019-06-01T17:51:31.715Z,21.20
2019-06-01T17:56:34.375Z,21.50
2019-06-01T18:01:42.240Z,21.40
2019-06-01T18:06:46.239Z,21.20
2019-06-01T18:11:51.081Z,21.90
2019-06-01T18:16:56.067Z,21.30
2019-06-01T18:22:00.868Z,21.20
2019-06-01T18:27:06.500Z,21.10
2019-06-01T18:32:11.619Z,21.00
2019-06-01T18:37:16.170Z,21.50
2019-06-01T18:42:23.775Z,21.80
2019-06-01T18:47:32.330Z,21.90
2019-06-01T18:52:35.062Z,22.20
2019-06-01T18:57:42.170Z,22.10
2019-06-01T19:02:46.679Z,22.40
2019-06-01T19:07:51.325Z,21.70
2019-06-01T19:12:55.844Z,22.30
2019-06-01T19:18:00.295Z,22.50
2019-06-01T19:23:06.612Z,22.60
2019-06-01T19:28:11.347Z,23.00
2019-06-01T19:33:18.740Z,23.30
2019-06-01T19:38:23.534Z,23.40
2019-06-01T19:43:28.894Z,23.30
2019-06-01T19:48:33.432Z,23.30
2019-06-01T19:53:38.010Z,23.30
2019-06-01T19:58:42.430Z,23.70
2019-06-01T20:03:47.002Z,23.80
2019-06-01T20:08:52.192Z,24.20
2019-06-01T20:13:57.151Z,24.30
2019-06-01T20:19:01.677Z,24.50
2019-06-01T20:24:06.322Z,24.60
2019-06-01T20:29:12.709Z,24.80
2019-06-01T20:34:18.008Z,25.00
2019-06-01T20:39:22.719Z,25.30
2019-06-01T20:44:27.302Z,25.40
2019-06-01T20:49:32.295Z,25.50
2019-06-01T20:54:39.985Z,25.70
2019-06-01T20:59:44.483Z,25.90
2019-06-01T21:04:49.256Z,26.10
2019-06-01T21:09:53.955Z,26.40
2019-06-01T21:14:58.418Z,26.60
2019-06-01T21:20:04.733Z,26.70
2019-06-01T21:25:11.068Z,26.90
2019-06-01T21:30:16.946Z,27.10
2019-06-01T21:35:23.359Z,27.20
2019-06-01T21:40:28.251Z,27.40
2019-06-01T21:45:32.810Z,27.50
2019-06-01T21:50:37.401Z,28.40
2019-06-01T21:55:42.022Z,27.90
2019-06-01T22:00:48.355Z,27.80
2019-06-01T22:05:53.183Z,27.80
2019-06-01T22:10:57.640Z,27.70
2019-06-01T22:16:02.156Z,27.60
2019-06-01T22:21:06.586Z,28.00
2019-06-01T22:26:11.327Z,28.10
2019-06-01T22:31:15.712Z,28.20
2019-06-01T22:36:20.516Z,28.10
2019-06-01T22:41:25.974Z,28.30
2019-06-01T22:46:30.483Z,28.40
2019-06-01T22:51:35.183Z,28.30
2019-06-01T22:56:39.617Z,28.50
2019-06-01T23:01:44.198Z,28.50
2019-06-01T23:06:48.690Z,28.70
2019-06-01T23:11:53.257Z,28.60
2019-06-01T23:16:57.776Z,28.70
2019-06-01T23:22:02.846Z,28.80
2019-06-01T23:27:07.286Z,28.80
2019-06-01T23:32:11.931Z,29.10
2019-06-01T23:37:16.297Z,29.20
2019-06-01T23:42:20.702Z,29.30
2019-06-01T23:47:25.718Z,29.40
2019-06-01T23:52:31.585Z,29.50
2019-06-01T23:57:36.180Z,29.40
